Oakland City, IN (47660)

6:05 PM CST on January 25, 2015 (GMT -0600)
1 Block West of Oakland City University | Change Station
CLOSE
Current Station
Personal Weather Station
Location: Oakland City, IN
Elevation: 490 ft
Nearby Weather Stations

Elev 490 ft 38.34 °N, 87.35 °W | Updated 4 seconds ago

Rain
Rain
41.3 °F
Feels Like 41 °F
N
0.0
Wind Variable Wind from South
Gusts 0.0 mph

Today
High -- | Low -- °F
--% Chance of Precip.
Yesterday
High -- | Low -- °F
Precip. -- in
7:00 AM 5:03 PM
Waxing Crescent, 37% visible
Pressure 29.67 in
Visibility 10.0 miles
Clouds Overcast 2800 ft
Windchill 41 °F
Dew Point 40 °F
Humidity 95%
Rainfall 0.23 in
Snow Depth Not available.
UV 0 out of 12
Pollen .10 out of 12
Air Quality Not available.
Flu Activity Not available.
METAR KHNB 252355Z AUTO 27005KT 10SM OVC028 04/02 A2967 RMK AO1 P0002 60014 10050 20040 52020

More Conditions Fewer Conditions

Pressure 29.67 in
Visibility 10.0 miles
Clouds Overcast 2800 ft
Windchill 41 °F
Dew Point 40 °F
Humidity 95%
Rainfall 0.23 in
Snow Depth Not available.
UV 0 out of 12
Pollen .10 out of 12
Air Quality Not available.
Flu Activity Not available.
METAR KHNB 252355Z AUTO 27005KT 10SM OVC028 04/02 A2967 RMK AO1 P0002 60014 10050 20040 52020

More Conditions Fewer Conditions

10-Day Weather Forecast

Almanac

Astronomy

Jan. 25, 2015 Rise Set
Actual Time
Civil Twilight
Nautical Twilight
Astronomical Twilight
Moon
Length of Visible Light
Length of Day
Tomorrow will be .
, % of the Moon is Illuminated

Today's Extremes

State Highs State Lows

Community

WunderPhotos

Upload Photos

1,790,006 photos uploaded!

WunderBlogs® & News

Nearby

Air Quality

  Air Quality AQ Index Pollutant
Not available.

Snow Depth

Station Depth Elevation

Earthquake Activity

City Distance Mag. Time & Date
Minimum magnitude displayed is 2.5.

Coastal Water Temperatures

Place Temperature

Nearby Weather Stations